Time;durP1;ratioP1;P1;durP2;ratioP2;P2;SDS_P1;SDS_P2;PMS_P1;PMS_P2;Temp;Humidity;BMP_temperature;BMP_pressure;BME280_temperature;BME280_humidity;BME280_pressure;Samples;Min_cycle;Max_cycle;Signal;HPM_P1;HPM_P2
2022/09/15 00:00:50;;;;;;;4.35;1.70;;;18.70;94.40;;;;;;5024295;28;20331;-68
2022/09/15 00:03:20;;;;;;;6.28;1.90;;;18.70;94.90;;;;;;5003663;28;20494;-69
2022/09/15 00:05:46;;;;;;;4.07;1.73;;;18.20;96.10;;;;;;5011300;28;20041;-71
2022/09/15 00:08:12;;;;;;;5.28;1.77;;;17.50;96.40;;;;;;5019456;28;20038;-68
2022/09/15 00:10:46;;;;;;;4.63;2.05;;;17.00;95.80;;;;;;5024472;28;20030;-68
2022/09/15 00:13:13;;;;;;;5.88;2.17;;;16.70;95.30;;;;;;5014492;28;20022;-69
2022/09/15 00:15:38;;;;;;;8.32;2.13;;;16.50;94.90;;;;;;5014323;28;20033;-69
2022/09/15 00:18:05;;;;;;;5.55;1.83;;;16.40;94.20;;;;;;5023856;28;20318;-68
2022/09/15 00:20:31;;;;;;;4.25;1.88;;;16.40;94.70;;;;;;5021022;28;20080;-68
2022/09/15 00:22:56;;;;;;;5.28;1.77;;;16.30;94.60;;;;;;5017890;28;20112;-68
2022/09/15 00:25:22;;;;;;;6.10;1.80;;;16.30;95.00;;;;;;5012911;28;20026;-68
2022/09/15 00:27:48;;;;;;;5.82;1.75;;;16.40;95.70;;;;;;5011533;28;20029;-68
2022/09/15 00:30:13;;;;;;;4.18;1.77;;;16.40;95.20;;;;;;5010219;28;20034;-67
2022/09/15 00:32:39;;;;;;;6.75;1.95;;;16.40;95.60;;;;;;5008768;28;20034;-68
2022/09/15 00:35:05;;;;;;;6.85;1.73;;;16.30;95.60;;;;;;5011485;28;20032;-68
2022/09/15 00:37:30;;;;;;;4.03;1.80;;;16.40;96.00;;;;;;5018802;28;20283;-68
2022/09/15 00:39:56;;;;;;;4.72;1.70;;;16.40;95.80;;;;;;5006977;28;20026;-68
2022/09/15 00:42:23;;;;;;;3.92;1.65;;;16.40;96.30;;;;;;5013810;28;20033;-69
2022/09/15 00:44:53;;;;;;;6.10;2.05;;;16.50;96.20;;;;;;5021155;28;20032;-67
2022/09/15 00:47:25;;;;;;;6.90;2.10;;;16.50;97.30;;;;;;5016830;28;20018;-68
2022/09/15 00:49:56;;;;;;;5.75;1.50;;;16.70;97.40;;;;;;5018800;28;20042;-69
2022/09/15 00:52:46;;;;;;;5.40;1.83;;;16.80;97.80;;;;;;5012970;28;20034;-67
2022/09/15 00:55:19;;;;;;;4.47;1.50;;;16.90;97.90;;;;;;5012626;28;20038;-68
2022/09/15 00:57:52;;;;;;;5.03;1.80;;;17.10;97.90;;;;;;5012863;28;20053;-68
2022/09/15 01:00:21;;;;;;;5.57;1.85;;;17.20;98.00;;;;;;5008361;28;20050;-68
2022/09/15 01:02:48;;;;;;;3.75;1.40;;;17.40;97.60;;;;;;5009661;28;20034;-69
2022/09/15 01:05:16;;;;;;;3.92;1.60;;;17.40;97.60;;;;;;5010732;28;20026;-68
2022/09/15 01:08:08;;;;;;;5.57;1.60;;;17.40;97.40;;;;;;5019512;28;20025;-69
2022/09/15 01:10:37;;;;;;;5.47;1.45;;;17.60;97.20;;;;;;5009769;28;20026;-69
2022/09/15 01:13:06;;;;;;;4.82;1.60;;;17.60;96.90;;;;;;5013469;28;20030;-68
2022/09/15 01:15:41;;;;;;;4.13;1.45;;;17.60;96.90;;;;;;5015934;28;20018;-68
2022/09/15 01:18:17;;;;;;;4.60;1.60;;;17.60;96.90;;;;;;5019494;28;20053;-69
2022/09/15 01:20:58;;;;;;;6.22;1.60;;;17.60;96.80;;;;;;5020676;28;20450;-69
2022/09/15 01:23:39;;;;;;;5.07;1.40;;;17.70;96.70;;;;;;5019444;28;20080;-68
2022/09/15 01:26:29;;;;;;;4.13;1.45;;;17.80;96.10;;;;;;5011076;28;20026;-68
2022/09/15 01:29:26;;;;;;;3.95;1.30;;;17.90;96.10;;;;;;5014633;28;20041;-68
2022/09/15 01:35:09;;;;;;;4.00;1.40;;;17.80;96.10;;;;;;5013382;28;20045;-68
2022/09/15 01:37:40;;;;;;;4.68;1.40;;;17.70;96.30;;;;;;5018341;28;20033;-68
2022/09/15 01:40:10;;;;;;;3.53;1.23;;;17.70;96.30;;;;;;5017455;28;20071;-68
2022/09/15 01:42:37;;;;;;;6.22;1.63;;;17.80;96.10;;;;;;5008081;28;20064;-68
2022/09/15 01:45:08;;;;;;;3.60;1.45;;;17.70;96.40;;;;;;5018035;28;20065;-68
2022/09/15 01:47:35;;;;;;;4.13;1.40;;;17.60;96.40;;;;;;5014976;28;20046;-68
2022/09/15 01:50:16;;;;;;;5.25;1.58;;;17.60;96.50;;;;;;5023151;28;20030;-68
2022/09/15 01:52:47;;;;;;;3.47;1.30;;;17.40;96.60;;;;;;5012236;28;20033;-68
2022/09/15 01:55:20;;;;;;;3.85;1.25;;;17.40;96.60;;;;;;5016433;28;20091;-68
2022/09/15 01:57:49;;;;;;;4.68;1.60;;;17.40;96.60;;;;;;5012790;28;20037;-69
2022/09/15 02:00:15;;;;;;;5.00;1.60;;;17.40;96.70;;;;;;5015573;28;20021;-68
2022/09/15 02:02:47;;;;;;;3.50;1.30;;;17.40;96.80;;;;;;5012763;28;20030;-68
2022/09/15 02:05:24;;;;;;;3.30;1.23;;;17.30;96.90;;;;;;5021075;28;20030;-68
2022/09/15 02:08:12;;;;;;;6.22;1.70;;;17.20;97.10;;;;;;5011389;28;20319;-68
2022/09/15 02:10:47;;;;;;;5.60;1.55;;;17.20;97.30;;;;;;5015892;28;20021;-68
2022/09/15 02:13:21;;;;;;;3.70;1.40;;;17.10;97.30;;;;;;5011778;28;20156;-68
2022/09/15 02:15:55;;;;;;;3.60;1.20;;;17.10;97.40;;;;;;4992974;28;20022;-68
2022/09/15 02:18:38;;;;;;;5.05;1.60;;;17.10;97.40;;;;;;5008890;28;20113;-68
2022/09/15 02:21:19;;;;;;;4.85;1.70;;;17.10;97.40;;;;;;5016676;28;20061;-68
2022/09/15 02:23:51;;;;;;;4.57;1.45;;;17.10;97.40;;;;;;5017574;28;20115;-68
2022/09/15 02:26:24;;;;;;;3.28;1.20;;;17.10;97.40;;;;;;5013451;28;20022;-68
2022/09/15 02:28:53;;;;;;;4.38;1.48;;;17.10;97.50;;;;;;5013081;28;20022;-68
2022/09/15 02:31:22;;;;;;;4.55;1.40;;;17.20;97.40;;;;;;5022378;28;20120;-68
2022/09/15 02:33:59;;;;;;;3.40;1.13;;;17.30;97.30;;;;;;5012230;28;20022;-68
2022/09/15 02:36:27;;;;;;;4.10;1.33;;;17.40;97.20;;;;;;5008431;28;20021;-67
2022/09/15 02:38:58;;;;;;;4.85;1.20;;;17.40;97.00;;;;;;5021381;28;20033;-68
2022/09/15 02:41:26;;;;;;;4.10;1.30;;;17.40;96.90;;;;;;5015720;28;20052;-69
2022/09/15 02:43:51;;;;;;;4.10;1.20;;;17.40;97.00;;;;;;5013375;28;20033;-67
2022/09/15 02:46:23;;;;;;;3.75;1.30;;;17.30;97.10;;;;;;5022663;28;20026;-67
2022/09/15 02:48:49;;;;;;;4.47;1.27;;;17.10;97.40;;;;;;5015808;28;20350;-68
2022/09/15 02:51:17;;;;;;;5.32;1.45;;;16.90;97.80;;;;;;5013698;28;20044;-67
2022/09/15 02:53:43;;;;;;;3.35;1.33;;;16.80;97.70;;;;;;5010971;28;20037;-68
2022/09/15 02:56:09;;;;;;;3.58;1.40;;;16.80;97.90;;;;;;5009453;28;20034;-68
2022/09/15 02:58:34;;;;;;;4.65;1.40;;;16.80;98.00;;;;;;5017573;28;20382;-68
2022/09/15 03:01:03;;;;;;;5.28;1.30;;;16.80;98.00;;;;;;5016497;28;20034;-68
2022/09/15 03:03:29;;;;;;;3.78;1.60;;;16.80;97.90;;;;;;5015514;28;20038;-68
2022/09/15 03:06:15;;;;;;;4.57;1.60;;;16.90;98.00;;;;;;5013910;28;20112;-68
2022/09/15 03:08:48;;;;;;;6.32;1.50;;;17.00;97.70;;;;;;5015651;28;20038;-67
2022/09/15 03:11:18;;;;;;;2.92;1.30;;;17.00;97.60;;;;;;5013354;28;20104;-68
2022/09/15 03:13:44;;;;;;;4.65;1.42;;;17.00;97.60;;;;;;5016948;28;20095;-68
2022/09/15 03:16:12;;;;;;;5.60;1.77;;;16.90;97.80;;;;;;5016002;28;20813;-68
2022/09/15 03:18:39;;;;;;;4.18;1.20;;;16.90;97.90;;;;;;5018325;28;20041;-68
2022/09/15 03:21:09;;;;;;;4.13;1.30;;;16.90;98.00;;;;;;5011463;28;20386;-67
2022/09/15 03:23:35;;;;;;;4.10;1.20;;;16.90;97.90;;;;;;5015823;28;20109;-68
2022/09/15 03:26:01;;;;;;;4.40;1.20;;;16.90;98.00;;;;;;4993448;28;20426;-67
2022/09/15 03:28:31;;;;;;;6.22;2.03;;;16.90;97.90;;;;;;5012576;28;20034;-68
2022/09/15 03:30:56;;;;;;;5.20;1.48;;;16.80;98.00;;;;;;5014763;28;20116;-68
2022/09/15 03:33:24;;;;;;;4.15;1.42;;;16.80;97.90;;;;;;5013432;28;20109;-68
2022/09/15 03:35:51;;;;;;;3.53;1.20;;;16.80;97.90;;;;;;5014639;28;20096;-66
2022/09/15 03:38:20;;;;;;;3.95;1.27;;;16.80;97.90;;;;;;5010954;28;20098;-65
2022/09/15 03:41:06;;;;;;;3.88;1.25;;;16.80;97.90;;;;;;5012148;28;20124;-67
2022/09/15 03:43:34;;;;;;;5.10;1.42;;;16.80;97.90;;;;;;5030800;28;20107;-68
2022/09/15 03:46:00;;;;;;;3.72;1.33;;;16.80;97.90;;;;;;5008174;28;20026;-68
2022/09/15 03:48:27;;;;;;;4.00;1.45;;;16.80;97.80;;;;;;5003210;28;20038;-68
2022/09/15 03:50:53;;;;;;;5.13;1.40;;;16.80;97.80;;;;;;5006249;28;20034;-68
2022/09/15 03:53:19;;;;;;;4.45;1.63;;;16.90;97.80;;;;;;5013910;28;20029;-68
2022/09/15 03:55:45;;;;;;;5.80;1.60;;;17.00;97.30;;;;;;5003760;28;20053;-68
2022/09/15 03:58:12;;;;;;;4.22;1.50;;;17.00;97.00;;;;;;4999878;28;20034;-67
2022/09/15 04:00:37;;;;;;;3.53;1.42;;;17.20;96.60;;;;;;5007551;28;20029;-68
2022/09/15 04:03:03;;;;;;;5.13;1.50;;;17.20;96.60;;;;;;5002274;28;20082;-68
2022/09/15 04:05:29;;;;;;;3.33;1.33;;;17.20;96.60;;;;;;5003917;28;20072;-67
2022/09/15 04:07:54;;;;;;;3.03;1.40;;;17.20;96.60;;;;;;5010707;28;20037;-66
2022/09/15 04:10:23;;;;;;;4.95;1.83;;;17.20;96.50;;;;;;5019421;28;20030;-66
2022/09/15 04:12:52;;;;;;;4.53;1.80;;;17.20;96.40;;;;;;5014202;28;20049;-66
2022/09/15 04:15:19;;;;;;;6.80;1.42;;;17.30;96.20;;;;;;5010112;28;20339;-68
2022/09/15 04:17:46;;;;;;;4.97;1.40;;;17.30;96.30;;;;;;5012579;28;20048;-68
2022/09/15 04:20:12;;;;;;;4.72;1.65;;;17.20;96.50;;;;;;5015483;28;20068;-68
2022/09/15 04:22:38;;;;;;;8.15;1.52;;;17.20;96.40;;;;;;5006809;28;20394;-67
2022/09/15 04:25:04;;;;;;;3.33;1.50;;;17.20;96.50;;;;;;5014976;28;20036;-68
2022/09/15 04:27:33;;;;;;;3.03;1.50;;;17.20;96.50;;;;;;5029144;28;20486;-67
2022/09/15 04:29:59;;;;;;;5.10;1.70;;;17.00;96.80;;;;;;5023155;28;20033;-68
2022/09/15 04:32:24;;;;;;;4.00;1.55;;;16.80;97.60;;;;;;5019248;28;20041;-68
2022/09/15 04:34:50;;;;;;;6.60;1.60;;;16.50;97.70;;;;;;5013765;28;20030;-68
2022/09/15 04:37:19;;;;;;;3.88;1.50;;;16.20;97.60;;;;;;4994261;28;20437;-68
2022/09/15 04:39:47;;;;;;;5.00;1.63;;;15.90;97.30;;;;;;5005115;28;20418;-68
2022/09/15 04:42:13;;;;;;;4.32;1.60;;;15.70;96.60;;;;;;5009932;28;20113;-68
2022/09/15 04:44:39;;;;;;;5.82;1.65;;;15.70;97.40;;;;;;5021718;28;20104;-69
2022/09/15 04:47:05;;;;;;;6.07;1.50;;;15.70;96.50;;;;;;4994794;28;20049;-69
2022/09/15 04:49:30;;;;;;;3.60;1.50;;;15.70;96.60;;;;;;5017087;28;20342;-69
2022/09/15 04:51:56;;;;;;;4.35;1.70;;;15.70;96.40;;;;;;5017263;28;20419;-69
2022/09/15 04:54:22;;;;;;;4.13;1.80;;;15.60;96.50;;;;;;5013534;28;20029;-69
2022/09/15 04:56:51;;;;;;;3.70;1.70;;;15.60;95.90;;;;;;5012488;28;20461;-69
2022/09/15 04:59:18;;;;;;;6.53;2.00;;;15.50;95.90;;;;;;5017659;28;20045;-69
2022/09/15 05:01:44;;;;;;;3.40;1.60;;;15.50;95.30;;;;;;5010928;28;20026;-69
2022/09/15 05:04:10;;;;;;;4.95;1.70;;;15.50;96.20;;;;;;5016304;28;20482;-68
2022/09/15 05:06:36;;;;;;;5.40;1.90;;;15.50;95.00;;;;;;5014064;28;20320;-68
2022/09/15 05:09:07;;;;;;;5.80;2.00;;;15.40;94.90;;;;;;5011468;28;20046;-68
2022/09/15 05:11:32;;;;;;;6.00;2.05;;;15.40;94.10;;;;;;5006096;28;20062;-68
2022/09/15 05:13:59;;;;;;;4.13;1.70;;;15.40;94.70;;;;;;5018770;28;20076;-68
2022/09/15 05:16:27;;;;;;;3.55;1.80;;;15.50;95.70;;;;;;5018260;28;20038;-68
2022/09/15 05:18:55;;;;;;;3.65;1.80;;;15.50;95.90;;;;;;5017963;28;20022;-68
2022/09/15 05:21:25;;;;;;;6.35;1.92;;;15.60;96.30;;;;;;5032055;28;20025;-68
2022/09/15 05:23:51;;;;;;;8.07;2.20;;;15.60;96.10;;;;;;5032126;28;20041;-68
2022/09/15 05:26:19;;;;;;;4.05;1.85;;;15.60;95.70;;;;;;5016311;28;20030;-69
2022/09/15 05:28:48;;;;;;;5.32;1.60;;;15.60;95.00;;;;;;5011157;28;20121;-68
2022/09/15 05:31:20;;;;;;;6.00;1.85;;;15.60;95.60;;;;;;5000316;28;20061;-68
2022/09/15 05:33:47;;;;;;;3.72;1.70;;;15.60;96.10;;;;;;5023644;28;20362;-68
2022/09/15 05:36:13;;;;;;;2.90;1.38;;;15.70;96.00;;;;;;5021617;28;20156;-68
2022/09/15 05:38:40;;;;;;;7.18;1.90;;;15.80;95.50;;;;;;5012010;28;20018;-69
2022/09/15 05:41:16;;;;;;;5.50;1.75;;;15.70;93.50;;;;;;5016140;28;20041;-69
2022/09/15 05:43:43;;;;;;;4.20;1.92;;;15.50;91.70;;;;;;5017255;28;20065;-71
2022/09/15 05:46:10;;;;;;;4.88;1.98;;;15.40;89.50;;;;;;5013605;28;20022;-71
2022/09/15 05:48:36;;;;;;;4.72;1.90;;;15.30;89.70;;;;;;4998934;28;20042;-71
2022/09/15 05:51:02;;;;;;;3.95;1.85;;;15.20;88.90;;;;;;5012911;28;20044;-71
2022/09/15 05:53:29;;;;;;;4.65;1.90;;;15.20;87.70;;;;;;5008315;28;20105;-71
2022/09/15 05:55:58;;;;;;;3.45;1.67;;;15.20;87.60;;;;;;5010002;28;20427;-71
2022/09/15 05:58:25;;;;;;;3.90;1.67;;;15.20;87.90;;;;;;5005394;28;20121;-70
2022/09/15 06:00:54;;;;;;;4.25;1.60;;;15.20;87.40;;;;;;4999154;28;20057;-69
2022/09/15 06:03:21;;;;;;;4.90;1.50;;;15.30;89.40;;;;;;4981641;28;20109;-70
2022/09/15 06:05:47;;;;;;;2.95;1.42;;;15.40;89.30;;;;;;4998839;28;20049;-70
2022/09/15 06:08:12;;;;;;;3.30;1.30;;;15.50;91.20;;;;;;4998950;28;20037;-71
2022/09/15 06:10:38;;;;;;;5.53;1.70;;;15.50;91.10;;;;;;5009645;28;20437;-69
2022/09/15 06:13:04;;;;;;;4.30;1.85;;;15.50;90.40;;;;;;5018323;28;20442;-71
2022/09/15 06:15:31;;;;;;;3.70;1.40;;;15.50;91.10;;;;;;5018288;28;20033;-69
2022/09/15 06:17:56;;;;;;;4.78;1.40;;;15.50;90.50;;;;;;5018165;28;20026;-71
2022/09/15 06:20:22;;;;;;;3.00;1.48;;;15.50;90.20;;;;;;5018283;28;20080;-70
2022/09/15 06:22:48;;;;;;;3.72;1.45;;;15.50;90.30;;;;;;5017194;28;20057;-70
2022/09/15 06:25:14;;;;;;;6.20;2.13;;;15.60;91.90;;;;;;5016972;28;20030;-69
2022/09/15 06:27:40;;;;;;;4.07;1.92;;;15.60;90.80;;;;;;5018171;28;20516;-70
2022/09/15 06:30:08;;;;;;;3.85;1.60;;;15.70;92.10;;;;;;5018036;28;20038;-70
2022/09/15 06:32:34;;;;;;;3.60;1.52;;;15.60;90.90;;;;;;5017971;28;20026;-69
2022/09/15 06:35:06;;;;;;;4.22;1.80;;;15.80;93.00;;;;;;5017872;28;20318;-71
2022/09/15 06:37:32;;;;;;;5.50;1.60;;;15.80;92.10;;;;;;5017221;28;20431;-69
2022/09/15 06:39:58;;;;;;;4.68;1.67;;;15.90;92.90;;;;;;4999184;28;20028;-69
2022/09/15 06:42:23;;;;;;;4.28;1.90;;;16.00;92.90;;;;;;5017832;28;20386;-70
2022/09/15 06:44:49;;;;;;;4.00;1.45;;;16.00;94.50;;;;;;5017645;28;20026;-69
2022/09/15 06:47:15;;;;;;;2.80;1.38;;;16.00;94.90;;;;;;5000086;28;20032;-70
2022/09/15 06:49:41;;;;;;;2.95;1.33;;;16.10;96.90;;;;;;4999515;28;20073;-70
2022/09/15 06:52:06;;;;;;;4.78;1.70;;;16.10;96.20;;;;;;5016637;28;20052;-70
2022/09/15 06:54:32;;;;;;;8.52;1.67;;;16.20;96.20;;;;;;5016389;28;20093;-70
2022/09/15 06:56:57;;;;;;;4.25;1.55;;;16.20;96.90;;;;;;5017671;28;20014;-69
2022/09/15 06:59:23;;;;;;;4.63;1.63;;;16.30;96.40;;;;;;5017469;28;20098;-70
2022/09/15 07:01:53;;;;;;;6.10;1.77;;;16.40;96.80;;;;;;5017384;28;20037;-69
2022/09/15 07:04:19;;;;;;;4.55;1.50;;;16.50;96.50;;;;;;5017401;28;20026;-70
2022/09/15 07:06:45;;;;;;;4.43;1.70;;;16.60;97.60;;;;;;5016504;28;20411;-69
2022/09/15 07:09:10;;;;;;;5.05;1.60;;;16.80;98.00;;;;;;5016676;28;20038;-69
2022/09/15 07:11:36;;;;;;;4.35;1.88;;;16.90;98.00;;;;;;5015840;28;20026;-69
2022/09/15 07:14:02;;;;;;;5.50;1.85;;;17.00;97.90;;;;;;5016202;28;20025;-69
2022/09/15 07:16:28;;;;;;;3.80;1.55;;;17.10;98.00;;;;;;5016358;28;20097;-69
2022/09/15 07:18:56;;;;;;;4.35;1.40;;;17.10;97.80;;;;;;5017169;28;20097;-69
2022/09/15 07:21:22;;;;;;;5.20;1.50;;;17.20;98.00;;;;;;5016881;28;20050;-69
2022/09/15 07:23:51;;;;;;;4.10;1.88;;;17.30;98.00;;;;;;5016918;28;20104;-69
2022/09/15 07:26:20;;;;;;;7.07;1.63;;;17.30;98.00;;;;;;5015826;28;20108;-69
2022/09/15 07:28:49;;;;;;;4.38;1.80;;;17.30;98.00;;;;;;5016936;28;20355;-69
2022/09/15 07:31:18;;;;;;;4.68;1.77;;;17.40;98.00;;;;;;5016228;28;20037;-69
2022/09/15 07:33:44;;;;;;;3.63;1.30;;;17.50;98.00;;;;;;5016940;28;20022;-69
2022/09/15 07:36:13;;;;;;;3.38;1.33;;;17.60;98.00;;;;;;5016757;28;20024;-69
2022/09/15 07:38:42;;;;;;;5.60;1.45;;;17.60;98.00;;;;;;5017037;28;20502;-69
2022/09/15 07:41:13;;;;;;;4.38;1.48;;;17.70;97.80;;;;;;5015562;28;20045;-69
2022/09/15 07:43:39;;;;;;;2.45;1.25;;;17.80;98.00;;;;;;5014919;28;20516;-69
2022/09/15 07:46:05;;;;;;;4.00;1.33;;;18.00;97.80;;;;;;5016664;28;20030;-69
2022/09/15 07:48:34;;;;;;;2.85;1.30;;;18.10;97.90;;;;;;5016493;28;20034;-69
2022/09/15 07:51:00;;;;;;;3.80;1.40;;;18.30;97.60;;;;;;5016542;28;20029;-69
2022/09/15 07:53:28;;;;;;;3.97;1.45;;;18.40;97.60;;;;;;5016753;28;20407;-69
2022/09/15 07:55:55;;;;;;;3.75;1.20;;;18.60;97.30;;;;;;5015165;28;20101;-69
2022/09/15 07:58:21;;;;;;;2.92;1.40;;;18.70;97.30;;;;;;5015703;28;20050;-69
2022/09/15 08:00:47;;;;;;;2.45;1.10;;;18.70;96.90;;;;;;5016453;28;20382;-69
2022/09/15 08:03:14;;;;;;;3.15;1.30;;;18.40;97.50;;;;;;5016344;28;20026;-69
2022/09/15 08:05:40;;;;;;;5.60;1.33;;;18.30;97.70;;;;;;5015473;28;20681;-69
2022/09/15 08:08:06;;;;;;;3.85;1.30;;;18.30;98.00;;;;;;5016388;28;20061;-69
2022/09/15 08:10:39;;;;;;;3.38;1.10;;;18.10;97.80;;;;;;5015084;28;20064;-68
2022/09/15 08:13:05;;;;;;;3.05;1.15;;;18.00;97.80;;;;;;5016323;28;20400;-68
2022/09/15 08:15:30;;;;;;;3.08;1.17;;;18.10;98.00;;;;;;5016297;28;20386;-68
2022/09/15 08:17:56;;;;;;;3.45;1.10;;;18.10;97.70;;;;;;5016317;28;20040;-68
2022/09/15 08:20:22;;;;;;;3.92;1.30;;;18.00;97.80;;;;;;5015210;28;20326;-68
2022/09/15 08:22:48;;;;;;;3.70;1.27;;;18.10;98.00;;;;;;5015412;28;20037;-68
2022/09/15 08:25:16;;;;;;;3.90;1.20;;;18.20;98.00;;;;;;5015026;28;20026;-68
2022/09/15 08:27:42;;;;;;;2.97;0.80;;;18.10;98.00;;;;;;5015985;28;20484;-68
2022/09/15 08:30:08;;;;;;;3.08;1.20;;;17.80;98.00;;;;;;5016264;28;20030;-68
2022/09/15 08:32:34;;;;;;;2.03;0.95;;;17.70;97.80;;;;;;5015636;28;20045;-68
2022/09/15 08:35:02;;;;;;;3.42;1.20;;;17.60;97.30;;;;;;5019635;28;20302;-68
2022/09/15 08:37:31;;;;;;;2.75;1.00;;;17.40;97.80;;;;;;5020176;28;20026;-69
2022/09/15 08:39:56;;;;;;;2.40;1.00;;;17.10;96.90;;;;;;5019008;28;20319;-70
2022/09/15 08:42:25;;;;;;;3.72;1.10;;;16.90;96.60;;;;;;5035476;28;20022;-70
2022/09/15 08:44:59;;;;;;;3.55;1.05;;;16.70;95.80;;;;;;5020123;28;20038;-70
2022/09/15 08:47:36;;;;;;;2.15;1.05;;;16.60;95.40;;;;;;5019761;28;20415;-70
2022/09/15 08:50:20;;;;;;;3.15;1.20;;;16.50;96.00;;;;;;5018984;28;20304;-70
2022/09/15 08:52:58;;;;;;;2.10;1.17;;;16.50;96.40;;;;;;5019125;28;20085;-69
2022/09/15 08:55:55;;;;;;;3.38;1.35;;;16.50;97.80;;;;;;5018678;28;20022;-70
2022/09/15 08:58:30;;;;;;;2.65;1.00;;;16.50;97.40;;;;;;5019654;28;20030;-70
2022/09/15 09:01:18;;;;;;;2.17;1.08;;;16.50;96.70;;;;;;5002342;28;20415;-69
2022/09/15 09:04:07;;;;;;;1.92;0.90;;;16.70;97.20;;;;;;5019724;28;20030;-69
2022/09/15 09:06:57;;;;;;;2.08;0.90;;;16.80;98.00;;;;;;5018921;28;20034;-70
2022/09/15 09:09:41;;;;;;;2.13;0.90;;;16.90;97.80;;;;;;5035100;28;20022;-69
2022/09/15 09:12:28;;;;;;;2.47;1.10;;;17.00;97.90;;;;;;5019417;28;20050;-70
2022/09/15 09:15:06;;;;;;;2.67;1.17;;;17.20;97.00;;;;;;5034843;28;20033;-69
2022/09/15 09:17:48;;;;;;;2.05;1.02;;;17.30;98.00;;;;;;5019525;28;20029;-70
2022/09/15 09:20:22;;;;;;;3.13;1.20;;;17.40;97.80;;;;;;5018740;28;20420;-70
2022/09/15 09:22:52;;;;;;;3.67;1.10;;;17.30;98.00;;;;;;5019318;28;20037;-70
2022/09/15 09:25:23;;;;;;;5.43;1.33;;;17.20;97.80;;;;;;5018072;28;20072;-69
2022/09/15 09:27:49;;;;;;;2.22;1.08;;;17.00;97.80;;;;;;5019208;28;20030;-69
2022/09/15 09:30:22;;;;;;;2.85;1.13;;;17.00;97.70;;;;;;5019162;28;20029;-70
2022/09/15 09:33:06;;;;;;;4.85;1.27;;;17.10;98.00;;;;;;5019054;28;20030;-69
2022/09/15 09:35:40;;;;;;;3.13;1.20;;;17.30;98.00;;;;;;5018205;28;20022;-69
2022/09/15 09:38:09;;;;;;;2.70;1.15;;;17.40;98.00;;;;;;5019069;28;20406;-69
2022/09/15 09:40:40;;;;;;;1.85;1.00;;;17.70;97.70;;;;;;5017767;28;20160;-69
2022/09/15 09:43:07;;;;;;;1.83;1.08;;;18.10;98.00;;;;;;5019013;28;20065;-69
2022/09/15 09:45:33;;;;;;;2.45;1.05;;;18.40;97.60;;;;;;5018638;28;20025;-69
2022/09/15 09:48:03;;;;;;;2.60;1.10;;;18.50;97.90;;;;;;5018704;28;20184;-69
2022/09/15 09:50:34;;;;;;;2.53;1.20;;;18.50;97.50;;;;;;5017650;28;20301;-69
2022/09/15 09:53:15;;;;;;;2.78;1.20;;;18.40;97.90;;;;;;5018658;28;20049;-69
2022/09/15 09:55:41;;;;;;;4.60;1.30;;;18.50;97.50;;;;;;5017546;28;20399;-68
2022/09/15 09:58:16;;;;;;;2.10;1.00;;;18.50;98.00;;;;;;5018663;28;20029;-69
2022/09/15 10:00:41;;;;;;;2.40;1.20;;;18.50;97.00;;;;;;5018639;28;20351;-69
2022/09/15 10:03:18;;;;;;;2.63;1.10;;;18.60;96.70;;;;;;5018581;28;20032;-69
2022/09/15 10:05:58;;;;;;;2.38;1.10;;;18.60;96.40;;;;;;5017792;28;20042;-69
2022/09/15 10:08:23;;;;;;;2.90;1.40;;;18.80;97.00;;;;;;5018551;28;20109;-69
2022/09/15 10:10:52;;;;;;;3.83;1.15;;;19.20;95.70;;;;;;5017366;28;20101;-68
2022/09/15 10:13:18;;;;;;;3.20;1.30;;;19.50;95.20;;;;;;5033808;28;20026;-69
2022/09/15 10:15:54;;;;;;;3.42;1.42;;;19.70;94.20;;;;;;5018242;28;20030;-68
2022/09/15 10:18:33;;;;;;;3.42;1.50;;;19.80;92.50;;;;;;5017493;28;20073;-68
2022/09/15 10:21:02;;;;;;;2.70;1.23;;;20.10;92.90;;;;;;5000309;28;20030;-69
2022/09/15 10:23:33;;;;;;;3.22;1.35;;;20.10;92.60;;;;;;5018199;28;20104;-68
2022/09/15 10:26:19;;;;;;;3.72;1.65;;;20.20;91.90;;;;;;5016975;28;20021;-68
2022/09/15 10:29:09;;;;;;;3.10;1.50;;;20.20;92.00;;;;;;5018097;28;20442;-68
2022/09/15 10:31:37;;;;;;;3.65;1.48;;;20.00;92.20;;;;;;5018050;28;20038;-68
2022/09/15 10:34:42;;;;;;;4.65;1.50;;;19.70;93.10;;;;;;5017044;28;20323;-68
2022/09/15 10:37:20;;;;;;;3.70;1.70;;;19.70;93.90;;;;;;4957584;29;20106;-69
2022/09/15 10:39:58;;;;;;;4.47;1.88;;;19.80;94.30;;;;;;5011066;28;20042;-68
2022/09/15 10:42:45;;;;;;;8.23;1.70;;;20.00;93.80;;;;;;5000889;28;20479;-68
2022/09/15 10:45:22;;;;;;;4.10;1.75;;;20.20;94.10;;;;;;5017837;28;20423;-68
2022/09/15 10:48:25;;;;;;;3.83;1.70;;;20.10;94.30;;;;;;5017600;28;20048;-68
2022/09/15 10:50:54;;;;;;;4.60;1.70;;;20.00;94.60;;;;;;5016877;28;20034;-68
2022/09/15 10:53:54;;;;;;;4.22;1.67;;;20.10;94.40;;;;;;5017494;28;20073;-68
2022/09/15 10:56:30;;;;;;;4.15;1.70;;;20.10;94.40;;;;;;4998395;28;20434;-68
2022/09/15 10:59:02;;;;;;;3.17;1.88;;;20.20;94.20;;;;;;5017517;28;20022;-68
2022/09/15 11:01:37;;;;;;;4.32;1.60;;;20.30;94.10;;;;;;5017288;28;20025;-68
2022/09/15 11:04:24;;;;;;;5.03;1.80;;;19.90;94.20;;;;;;5016448;28;20112;-68
2022/09/15 11:06:55;;;;;;;6.13;2.22;;;19.40;95.50;;;;;;5007048;28;20489;-68
2022/09/15 11:09:45;;;;;;;6.20;2.15;;;19.00;97.10;;;;;;5017280;28;20026;-68
2022/09/15 11:12:16;;;;;;;4.80;2.30;;;18.60;97.30;;;;;;4986581;28;20033;-68
2022/09/15 11:15:02;;;;;;;5.18;2.35;;;18.30;97.20;;;;;;5017199;28;20049;-68
2022/09/15 11:18:03;;;;;;;4.65;2.40;;;18.00;97.80;;;;;;5017256;28;20026;-68
2022/09/15 11:21:08;;;;;;;5.30;2.15;;;17.80;96.80;;;;;;4981241;28;20338;-68
2022/09/15 11:23:47;;;;;;;5.45;2.28;;;17.90;98.00;;;;;;5002437;28;20124;-68
2022/09/15 11:26:19;;;;;;;5.13;2.08;;;17.90;96.20;;;;;;5015892;28;20030;-68
2022/09/15 11:28:52;;;;;;;4.38;2.10;;;18.10;97.00;;;;;;5016858;28;20574;-67
2022/09/15 11:31:33;;;;;;;6.17;2.70;;;18.00;96.40;;;;;;5017028;28;20026;-68
2022/09/15 11:34:20;;;;;;;5.70;2.40;;;17.90;95.90;;;;;;5016992;28;20049;-69
2022/09/15 11:37:09;;;;;;;5.05;2.58;;;17.70;94.40;;;;;;5016801;28;20097;-70
2022/09/15 11:39:59;;;;;;;3.67;2.20;;;17.50;94.00;;;;;;5014853;28;20315;-69
2022/09/15 11:42:52;;;;;;;5.72;2.40;;;17.30;93.70;;;;;;5016738;28;20087;-69
2022/09/15 11:45:24;;;;;;;7.07;3.10;;;17.10;94.20;;;;;;5016541;28;20115;-69
2022/09/15 11:48:00;;;;;;;6.85;2.20;;;17.00;93.20;;;;;;5016585;28;20462;-70
2022/09/15 11:50:40;;;;;;;7.75;2.90;;;16.90;92.30;;;;;;5016672;28;20420;-70
2022/09/15 11:53:33;;;;;;;5.55;2.35;;;16.90;92.20;;;;;;5015386;28;20036;-70
2022/09/15 11:56:10;;;;;;;6.30;2.20;;;16.90;91.70;;;;;;5014570;28;20083;-69
2022/09/15 11:58:39;;;;;;;3.95;2.10;;;16.80;91.70;;;;;;5000073;28;20025;-69
2022/09/15 12:01:10;;;;;;;4.25;2.53;;;16.70;91.60;;;;;;5016424;28;20022;-70
2022/09/15 12:03:55;;;;;;;5.20;2.42;;;16.60;89.70;;;;;;5016384;28;20026;-70
2022/09/15 12:06:25;;;;;;;;;;;16.50;88.10;;;;;;5016936;28;20022;-70
2022/09/15 12:08:57;;;;;;;5.38;2.40;;;16.40;86.70;;;;;;4999197;28;19959;-70
2022/09/15 12:11:25;;;;;;;5.85;2.60;;;16.30;86.90;;;;;;5014039;28;20441;-70
2022/09/15 12:13:52;;;;;;;5.70;2.92;;;16.30;85.30;;;;;;5016527;28;20338;-70
2022/09/15 12:16:19;;;;;;;5.35;2.70;;;16.20;84.60;;;;;;5016275;28;20049;-70
2022/09/15 12:18:48;;;;;;;5.15;2.75;;;16.20;83.60;;;;;;5016168;28;20346;-70
2022/09/15 12:21:37;;;;;;;6.30;3.08;;;16.10;82.90;;;;;;5016254;28;20028;-70
2022/09/15 12:24:18;;;;;;;8.25;4.53;;;16.10;81.50;;;;;;5018044;28;20022;-70
2022/09/15 12:26:45;;;;;;;8.82;3.97;;;16.00;80.70;;;;;;4995868;28;20026;-70
2022/09/15 12:29:26;;;;;;;5.57;3.67;;;16.00;80.40;;;;;;5016103;28;20106;-71
2022/09/15 12:32:18;;;;;;;7.40;3.60;;;15.80;80.10;;;;;;5016007;28;20022;-71
2022/09/15 12:35:02;;;;;;;7.43;3.20;;;15.70;79.10;;;;;;5008178;28;20042;-70
2022/09/15 12:37:41;;;;;;;12.23;1.42;;;15.60;80.70;;;;;;5015910;28;20018;-71
2022/09/15 12:40:27;;;;;;;9.80;1.65;;;15.20;80.70;;;;;;5014122;28;20385;-72
2022/09/15 12:42:53;;;;;;;6.78;1.33;;;15.00;80.10;;;;;;5016112;28;20030;-72
2022/09/15 12:45:23;;;;;;;6.75;1.40;;;14.80;79.90;;;;;;5015901;28;20033;-72
2022/09/15 12:47:53;;;;;;;2.63;0.93;;;14.70;79.10;;;;;;5015759;28;20073;-72
2022/09/15 12:50:21;;;;;;;1.02;0.50;;;14.70;80.10;;;;;;5016011;28;20112;-71
2022/09/15 12:53:02;;;;;;;3.42;0.88;;;14.60;79.60;;;;;;4997355;28;20030;-72
2022/09/15 12:55:33;;;;;;;4.68;1.70;;;14.50;79.90;;;;;;5014770;28;20076;-71
2022/09/15 12:58:07;;;;;;;2.75;1.60;;;14.50;79.30;;;;;;5016097;28;20030;-71
2022/09/15 13:00:38;;;;;;;3.45;1.60;;;14.40;79.50;;;;;;5015742;28;20029;-71
2022/09/15 13:03:23;;;;;;;3.90;1.70;;;14.30;80.90;;;;;;5015834;28;20036;-71
2022/09/15 13:05:51;;;;;;;3.13;1.98;;;14.30;79.50;;;;;;5015842;28;20025;-71
2022/09/15 13:08:22;;;;;;;4.93;2.97;;;14.20;81.30;;;;;;5015182;28;20062;-71
2022/09/15 13:11:17;;;;;;;5.35;3.53;;;14.10;80.40;;;;;;5014502;28;20018;-70
2022/09/15 13:13:49;;;;;;;7.30;3.90;;;14.10;79.60;;;;;;5015762;28;20022;-69